sensor_id;sensor_type;location;lat;lon;timestamp;pressure;altitude;pressure_sealevel;temperature;humidity
49072;BME280;52656;52.610;10.236;2023-05-19T00:01:25;102289.28;;;9.94;56.20
49072;BME280;52656;52.610;10.236;2023-05-19T00:03:55;102287.59;;;9.88;56.33
49072;BME280;52656;52.610;10.236;2023-05-19T00:06:25;102280.59;;;9.84;56.56
49072;BME280;52656;52.610;10.236;2023-05-19T00:08:58;102279.78;;;9.75;56.92
49072;BME280;52656;52.610;10.236;2023-05-19T00:11:24;102288.63;;;9.74;57.45
49072;BME280;52656;52.610;10.236;2023-05-19T00:13:51;102287.75;;;9.73;57.21
49072;BME280;52656;52.610;10.236;2023-05-19T00:16:17;102289.47;;;9.77;57.01
49072;BME280;52656;52.610;10.236;2023-05-19T00:18:42;102285.09;;;9.75;57.35
49072;BME280;52656;52.610;10.236;2023-05-19T00:21:07;102282.69;;;9.55;58.52
49072;BME280;52656;52.610;10.236;2023-05-19T00:23:32;102279.97;;;9.58;58.17
49072;BME280;52656;52.610;10.236;2023-05-19T00:25:59;102276.34;;;9.68;57.78
49072;BME280;52656;52.610;10.236;2023-05-19T00:28:24;102284.44;;;9.53;58.54
49072;BME280;52656;52.610;10.236;2023-05-19T00:30:49;102279.94;;;9.61;57.78
49072;BME280;52656;52.610;10.236;2023-05-19T00:33:15;102294.41;;;9.28;59.66
49072;BME280;52656;52.610;10.236;2023-05-19T00:35:40;102286.28;;;9.46;59.32
49072;BME280;52656;52.610;10.236;2023-05-19T00:38:05;102282.88;;;9.36;59.54
49072;BME280;52656;52.610;10.236;2023-05-19T00:40:30;102287.97;;;9.53;58.88
49072;BME280;52656;52.610;10.236;2023-05-19T00:42:57;102286.25;;;9.51;58.98
49072;BME280;52656;52.610;10.236;2023-05-19T00:45:23;102280.22;;;9.36;60.00
49072;BME280;52656;52.610;10.236;2023-05-19T00:47:48;102282.72;;;9.50;59.37
49072;BME280;52656;52.610;10.236;2023-05-19T00:50:13;102286.38;;;9.40;60.02
49072;BME280;52656;52.610;10.236;2023-05-19T00:52:38;102287.22;;;9.39;60.10
49072;BME280;52656;52.610;10.236;2023-05-19T00:55:04;102283.84;;;9.28;60.82
49072;BME280;52656;52.610;10.236;2023-05-19T00:57:29;102288.28;;;9.24;61.20
49072;BME280;52656;52.610;10.236;2023-05-19T00:59:55;102284.75;;;9.24;61.46
49072;BME280;52656;52.610;10.236;2023-05-19T01:02:20;102285.56;;;9.32;61.17
49072;BME280;52656;52.610;10.236;2023-05-19T01:04:45;102289.13;;;9.28;61.15
49072;BME280;52656;52.610;10.236;2023-05-19T01:07:11;102284.69;;;9.30;61.31
49072;BME280;52656;52.610;10.236;2023-05-19T01:09:36;102285.59;;;9.29;61.21
49072;BME280;52656;52.610;10.236;2023-05-19T01:12:02;102280.34;;;9.24;61.65
49072;BME280;52656;52.610;10.236;2023-05-19T01:14:27;102280.41;;;9.18;61.87
49072;BME280;52656;52.610;10.236;2023-05-19T01:24:50;102272.50;;;9.15;62.58
49072;BME280;52656;52.610;10.236;2023-05-19T01:32:30;102279.50;;;9.19;62.94
49072;BME280;52656;52.610;10.236;2023-05-19T01:34:57;102274.25;;;9.14;63.46
49072;BME280;52656;52.610;10.236;2023-05-19T01:37:22;102281.44;;;9.02;63.80
49072;BME280;52656;52.610;10.236;2023-05-19T01:39:48;102276.84;;;9.22;62.67
49072;BME280;52656;52.610;10.236;2023-05-19T01:42:14;102278.66;;;9.12;63.50
49072;BME280;52656;52.610;10.236;2023-05-19T01:44:39;102278.78;;;8.99;64.41
49072;BME280;52656;52.610;10.236;2023-05-19T01:47:04;102282.25;;;9.08;63.71
49072;BME280;52656;52.610;10.236;2023-05-19T01:49:30;102271.78;;;8.99;64.63
49072;BME280;52656;52.610;10.236;2023-05-19T01:51:55;102283.13;;;9.07;64.27
49072;BME280;52656;52.610;10.236;2023-05-19T01:54:20;102279.66;;;9.02;64.45
49072;BME280;52656;52.610;10.236;2023-05-19T01:56:51;102269.84;;;9.15;63.75
49072;BME280;52656;52.610;10.236;2023-05-19T02:02:02;102282.34;;;8.99;65.15
49072;BME280;52656;52.610;10.236;2023-05-19T02:09:58;102281.44;;;8.99;65.04
49072;BME280;52656;52.610;10.236;2023-05-19T02:12:28;102276.13;;;9.05;64.89
49072;BME280;52656;52.610;10.236;2023-05-19T02:17:37;102277.06;;;8.98;64.98
49072;BME280;52656;52.610;10.236;2023-05-19T02:20:05;102281.38;;;9.06;64.44
49072;BME280;52656;52.610;10.236;2023-05-19T02:22:31;102275.34;;;8.89;66.13
49072;BME280;52656;52.610;10.236;2023-05-19T02:24:56;102282.28;;;9.02;64.70
49072;BME280;52656;52.610;10.236;2023-05-19T02:27:21;102282.47;;;8.82;65.87
49072;BME280;52656;52.610;10.236;2023-05-19T02:29:47;102277.94;;;8.97;65.13
49072;BME280;52656;52.610;10.236;2023-05-19T02:32:12;102277.94;;;8.98;65.36
49072;BME280;52656;52.610;10.236;2023-05-19T02:34:37;102278.06;;;8.86;66.61
49072;BME280;52656;52.610;10.236;2023-05-19T02:37:02;102265.66;;;8.92;65.68
49072;BME280;52656;52.610;10.236;2023-05-19T02:39:28;102266.63;;;8.81;66.73
49072;BME280;52656;52.610;10.236;2023-05-19T02:41:58;102275.28;;;8.98;65.65
49072;BME280;52656;52.610;10.236;2023-05-19T02:44:24;102269.09;;;9.02;65.40
49072;BME280;52656;52.610;10.236;2023-05-19T02:46:49;102274.47;;;8.95;65.78
49072;BME280;52656;52.610;10.236;2023-05-19T02:49:14;102275.28;;;8.98;65.77
49072;BME280;52656;52.610;10.236;2023-05-19T02:51:39;102268.22;;;8.99;65.86
49072;BME280;52656;52.610;10.236;2023-05-19T02:54:05;102265.59;;;9.00;66.03
49072;BME280;52656;52.610;10.236;2023-05-19T02:56:30;102259.41;;;9.01;66.15
49072;BME280;52656;52.610;10.236;2023-05-19T02:58:55;102269.09;;;9.02;65.83
49072;BME280;52656;52.610;10.236;2023-05-19T03:01:20;102257.69;;;8.97;66.39
49072;BME280;52656;52.610;10.236;2023-05-19T03:03:46;102257.63;;;9.03;66.12
49072;BME280;52656;52.610;10.236;2023-05-19T03:06:12;102260.25;;;9.06;65.89
49072;BME280;52656;52.610;10.236;2023-05-19T03:08:37;102253.16;;;9.10;65.97
49072;BME280;52656;52.610;10.236;2023-05-19T03:11:02;102253.13;;;9.11;65.79
49072;BME280;52656;52.610;10.236;2023-05-19T03:13:27;102257.56;;;9.11;65.68
49072;BME280;52656;52.610;10.236;2023-05-19T03:15:53;102253.16;;;9.13;65.84
49072;BME280;52656;52.610;10.236;2023-05-19T03:18:20;102246.97;;;9.11;65.90
49072;BME280;52656;52.610;10.236;2023-05-19T03:20:48;102248.78;;;9.06;66.49
49072;BME280;52656;52.610;10.236;2023-05-19T03:23:13;102248.78;;;9.06;66.51
49072;BME280;52656;52.610;10.236;2023-05-19T03:25:39;102251.47;;;9.04;66.73
49072;BME280;52656;52.610;10.236;2023-05-19T03:28:04;102254.97;;;9.05;66.25
49072;BME280;52656;52.610;10.236;2023-05-19T03:30:29;102256.84;;;8.95;66.67
49072;BME280;52656;52.610;10.236;2023-05-19T03:32:54;102253.25;;;9.01;67.14
49072;BME280;52656;52.610;10.236;2023-05-19T03:35:19;102256.75;;;9.01;66.91
49072;BME280;52656;52.610;10.236;2023-05-19T03:37:45;102255.84;;;9.08;66.91
49072;BME280;52656;52.610;10.236;2023-05-19T03:40:10;102252.34;;;9.02;67.29
49072;BME280;52656;52.610;10.236;2023-05-19T03:42:35;102254.97;;;9.03;67.19
49072;BME280;52656;52.610;10.236;2023-05-19T03:45:01;102252.34;;;9.05;67.81
49072;BME280;52656;52.610;10.236;2023-05-19T03:47:26;102254.06;;;9.06;67.67
49072;BME280;52656;52.610;10.236;2023-05-19T03:49:51;102259.34;;;9.07;67.81
49072;BME280;52656;52.610;10.236;2023-05-19T03:52:17;102262.72;;;9.22;67.29
49072;BME280;52656;52.610;10.236;2023-05-19T03:54:42;102264.50;;;9.21;67.66
49072;BME280;52656;52.610;10.236;2023-05-19T03:57:08;102268.72;;;9.39;66.56
49072;BME280;52656;52.610;10.236;2023-05-19T03:59:33;102265.03;;;9.55;65.74
49072;BME280;52656;52.610;10.236;2023-05-19T04:01:59;102262.22;;;9.69;65.16
49072;BME280;52656;52.610;10.236;2023-05-19T04:04:24;102260.31;;;9.80;64.42
49072;BME280;52656;52.610;10.236;2023-05-19T04:06:50;102259.53;;;9.74;65.29
49072;BME280;52656;52.610;10.236;2023-05-19T04:09:15;102268.25;;;9.80;65.11
49072;BME280;52656;52.610;10.236;2023-05-19T04:11:41;102264.59;;;9.95;64.56
49072;BME280;52656;52.610;10.236;2023-05-19T04:14:06;102264.25;;;10.19;63.42
49072;BME280;52656;52.610;10.236;2023-05-19T04:16:32;102269.28;;;10.38;62.60
49072;BME280;52656;52.610;10.236;2023-05-19T04:18:57;102267.31;;;10.52;62.50
49072;BME280;52656;52.610;10.236;2023-05-19T04:21:22;102267.00;;;10.72;62.04
49072;BME280;52656;52.610;10.236;2023-05-19T04:23:47;102271.81;;;11.01;60.80
49072;BME280;52656;52.610;10.236;2023-05-19T04:26:13;102264.97;;;11.84;57.90
49072;BME280;52656;52.610;10.236;2023-05-19T04:28:41;102259.16;;;13.51;52.81
49072;BME280;52656;52.610;10.236;2023-05-19T04:31:09;102252.81;;;14.73;49.04
49072;BME280;52656;52.610;10.236;2023-05-19T04:33:35;102256.41;;;15.24;47.07
49072;BME280;52656;52.610;10.236;2023-05-19T04:36:00;102248.59;;;17.02;43.45
49072;BME280;52656;52.610;10.236;2023-05-19T04:38:29;102252.88;;;17.47;42.09
49072;BME280;52656;52.610;10.236;2023-05-19T04:40:54;102248.94;;;18.69;39.71
49072;BME280;52656;52.610;10.236;2023-05-19T04:43:20;102252.22;;;19.11;38.59
49072;BME280;52656;52.610;10.236;2023-05-19T04:45:46;102248.28;;;19.68;38.06
49072;BME280;52656;52.610;10.236;2023-05-19T04:48:14;102251.03;;;20.00;37.31
49072;BME280;52656;52.610;10.236;2023-05-19T04:50:39;102253.75;;;20.47;36.07
49072;BME280;52656;52.610;10.236;2023-05-19T04:53:06;102244.03;;;21.21;35.04
49072;BME280;52656;52.610;10.236;2023-05-19T04:55:31;102255.28;;;21.13;34.01
49072;BME280;52656;52.610;10.236;2023-05-19T04:57:56;102239.69;;;19.62;36.88
49072;BME280;52656;52.610;10.236;2023-05-19T05:00:22;102249.28;;;17.69;40.16
49072;BME280;52656;52.610;10.236;2023-05-19T05:02:47;102263.50;;;16.66;41.86
49072;BME280;52656;52.610;10.236;2023-05-19T05:05:12;102259.00;;;16.66;42.45
49072;BME280;52656;52.610;10.236;2023-05-19T05:07:38;102264.91;;;15.85;44.25
49072;BME280;52656;52.610;10.236;2023-05-19T05:10:03;102270.88;;;14.92;45.37
49072;BME280;52656;52.610;10.236;2023-05-19T05:12:28;102266.59;;;14.30;47.29
49072;BME280;52656;52.610;10.236;2023-05-19T05:14:54;102274.63;;;13.37;49.75
49072;BME280;52656;52.610;10.236;2023-05-19T05:17:19;102275.13;;;13.18;50.61
49072;BME280;52656;52.610;10.236;2023-05-19T05:19:45;102268.13;;;13.14;50.38
49072;BME280;52656;52.610;10.236;2023-05-19T05:22:11;102266.66;;;13.03;51.65
49072;BME280;52656;52.610;10.236;2023-05-19T05:24:36;102268.44;;;13.04;51.48
49072;BME280;52656;52.610;10.236;2023-05-19T05:27:01;102266.75;;;12.64;52.77
49072;BME280;52656;52.610;10.236;2023-05-19T05:29:27;102267.81;;;12.92;52.14
49072;BME280;52656;52.610;10.236;2023-05-19T05:31:53;102265.72;;;12.69;53.17
49072;BME280;52656;52.610;10.236;2023-05-19T05:34:18;102265.91;;;12.62;53.28
49072;BME280;52656;52.610;10.236;2023-05-19T05:36:43;102259.53;;;13.05;52.23
49072;BME280;52656;52.610;10.236;2023-05-19T05:39:08;102259.00;;;12.90;52.21
49072;BME280;52656;52.610;10.236;2023-05-19T05:41:33;102258.72;;;12.65;52.86
49072;BME280;52656;52.610;10.236;2023-05-19T05:44:02;102258.50;;;12.76;52.25
49072;BME280;52656;52.610;10.236;2023-05-19T05:46:28;102260.84;;;13.21;51.22
49072;BME280;52656;52.610;10.236;2023-05-19T05:48:53;102265.56;;;12.77;51.66
49072;BME280;52656;52.610;10.236;2023-05-19T05:51:22;102249.94;;;13.32;50.67
49072;BME280;52656;52.610;10.236;2023-05-19T05:53:51;102257.31;;;13.20;50.10
49072;BME280;52656;52.610;10.236;2023-05-19T05:56:17;102265.41;;;13.50;49.54
49072;BME280;52656;52.610;10.236;2023-05-19T05:58:43;102256.88;;;13.37;49.16
49072;BME280;52656;52.610;10.236;2023-05-19T06:01:08;102257.66;;;14.33;47.72
49072;BME280;52656;52.610;10.236;2023-05-19T06:03:39;102254.03;;;14.35;47.42
49072;BME280;52656;52.610;10.236;2023-05-19T06:06:04;102257.31;;;14.15;47.78
49072;BME280;52656;52.610;10.236;2023-05-19T06:08:29;102259.94;;;14.17;47.88
49072;BME280;52656;52.610;10.236;2023-05-19T06:10:55;102253.38;;;14.55;46.73
49072;BME280;52656;52.610;10.236;2023-05-19T06:13:22;102255.13;;;14.84;46.36
49072;BME280;52656;52.610;10.236;2023-05-19T06:15:48;102255.50;;;15.00;45.98
49072;BME280;52656;52.610;10.236;2023-05-19T06:18:13;102254.78;;;14.95;46.00
49072;BME280;52656;52.610;10.236;2023-05-19T06:20:38;102261.69;;;15.01;45.63
49072;BME280;52656;52.610;10.236;2023-05-19T06:23:03;102260.94;;;15.47;44.52
49072;BME280;52656;52.610;10.236;2023-05-19T06:25:28;102265.38;;;14.96;46.15
49072;BME280;52656;52.610;10.236;2023-05-19T06:27:54;102262.31;;;14.82;46.49
49072;BME280;52656;52.610;10.236;2023-05-19T06:30:19;102260.41;;;15.12;45.48
49072;BME280;52656;52.610;10.236;2023-05-19T06:32:44;102262.97;;;15.89;44.19
49072;BME280;52656;52.610;10.236;2023-05-19T06:35:10;102258.88;;;16.04;43.52
49072;BME280;52656;52.610;10.236;2023-05-19T06:37:35;102266.47;;;15.66;44.00
49072;BME280;52656;52.610;10.236;2023-05-19T06:40:00;102262.34;;;15.07;45.04
49072;BME280;52656;52.610;10.236;2023-05-19T06:42:25;102259.44;;;15.40;44.98
49072;BME280;52656;52.610;10.236;2023-05-19T06:44:51;102257.97;;;16.03;43.55
49072;BME280;52656;52.610;10.236;2023-05-19T06:47:17;102258.53;;;15.39;44.39
49072;BME280;52656;52.610;10.236;2023-05-19T06:49:43;102256.25;;;15.54;44.01
49072;BME280;52656;52.610;10.236;2023-05-19T06:52:08;102257.47;;;15.20;44.24
49072;BME280;52656;52.610;10.236;2023-05-19T06:54:33;102259.97;;;16.21;43.21
49072;BME280;52656;52.610;10.236;2023-05-19T06:56:59;102255.59;;;16.19;42.21
49072;BME280;52656;52.610;10.236;2023-05-19T06:59:24;102256.88;;;16.09;42.70
49072;BME280;52656;52.610;10.236;2023-05-19T07:01:49;102255.56;;;16.86;41.52
49072;BME280;52656;52.610;10.236;2023-05-19T07:04:15;102249.88;;;17.35;40.83
49072;BME280;52656;52.610;10.236;2023-05-19T07:06:40;102251.81;;;16.90;41.25
49072;BME280;52656;52.610;10.236;2023-05-19T07:09:05;102248.28;;;17.10;39.81
49072;BME280;52656;52.610;10.236;2023-05-19T07:11:30;102246.03;;;17.81;39.39
49072;BME280;52656;52.610;10.236;2023-05-19T07:13:55;102253.94;;;17.43;39.96
49072;BME280;52656;52.610;10.236;2023-05-19T07:16:21;102250.78;;;17.74;38.81
49072;BME280;52656;52.610;10.236;2023-05-19T07:18:46;102248.84;;;18.16;38.24
49072;BME280;52656;52.610;10.236;2023-05-19T07:21:11;102244.22;;;21.18;33.42
49072;BME280;52656;52.610;10.236;2023-05-19T07:23:36;102259.16;;;20.93;33.48
49072;BME280;52656;52.610;10.236;2023-05-19T07:26:01;102247.69;;;19.63;34.55
49072;BME280;52656;52.610;10.236;2023-05-19T07:28:27;102258.44;;;19.28;35.61
49072;BME280;52656;52.610;10.236;2023-05-19T07:30:52;102251.22;;;19.64;35.40
49072;BME280;52656;52.610;10.236;2023-05-19T07:33:17;102238.03;;;22.03;31.39
49072;BME280;52656;52.610;10.236;2023-05-19T07:35:42;102243.34;;;24.26;29.29
49072;BME280;52656;52.610;10.236;2023-05-19T07:38:09;102237.38;;;23.08;30.21
49072;BME280;52656;52.610;10.236;2023-05-19T07:40:34;102233.19;;;24.17;28.34
49072;BME280;52656;52.610;10.236;2023-05-19T07:43:00;102222.03;;;25.85;27.05
49072;BME280;52656;52.610;10.236;2023-05-19T07:45:25;102216.31;;;27.48;24.70
49072;BME280;52656;52.610;10.236;2023-05-19T07:47:50;102225.13;;;27.62;24.58
49072;BME280;52656;52.610;10.236;2023-05-19T07:50:16;102215.88;;;28.33;23.77
49072;BME280;52656;52.610;10.236;2023-05-19T07:52:41;102221.41;;;28.03;23.82
49072;BME280;52656;52.610;10.236;2023-05-19T07:55:06;102226.72;;;25.83;26.03
49072;BME280;52656;52.610;10.236;2023-05-19T07:57:32;102222.09;;;24.80;27.07
49072;BME280;52656;52.610;10.236;2023-05-19T07:59:57;102218.84;;;27.40;24.77
49072;BME280;52656;52.610;10.236;2023-05-19T08:02:22;102215.22;;;30.39;22.12
49072;BME280;52656;52.610;10.236;2023-05-19T08:04:47;102209.03;;;30.54;21.65
49072;BME280;52656;52.610;10.236;2023-05-19T08:07:13;102205.75;;;31.39;20.90
49072;BME280;52656;52.610;10.236;2023-05-19T08:09:38;102209.00;;;31.42;20.18
49072;BME280;52656;52.610;10.236;2023-05-19T08:12:03;102202.81;;;30.70;20.73
49072;BME280;52656;52.610;10.236;2023-05-19T08:14:29;102206.56;;;29.88;21.69
49072;BME280;52656;52.610;10.236;2023-05-19T08:16:55;102205.41;;;31.68;20.21
49072;BME280;52656;52.610;10.236;2023-05-19T08:19:20;102200.00;;;32.51;19.11
49072;BME280;52656;52.610;10.236;2023-05-19T08:21:45;102194.31;;;31.17;20.04
49072;BME280;52656;52.610;10.236;2023-05-19T08:24:12;102202.44;;;30.65;20.88
49072;BME280;52656;52.610;10.236;2023-05-19T08:26:37;102203.91;;;30.95;20.60
49072;BME280;52656;52.610;10.236;2023-05-19T08:29:02;102192.97;;;30.24;21.36
49072;BME280;52656;52.610;10.236;2023-05-19T08:31:28;102192.81;;;31.49;19.59
49072;BME280;52656;52.610;10.236;2023-05-19T08:33:53;102194.47;;;30.36;20.90
49072;BME280;52656;52.610;10.236;2023-05-19T08:36:18;102197.25;;;28.68;22.09
49072;BME280;52656;52.610;10.236;2023-05-19T08:38:44;102192.94;;;29.51;21.86
49072;BME280;52656;52.610;10.236;2023-05-19T08:41:09;102185.78;;;30.94;20.89
49072;BME280;52656;52.610;10.236;2023-05-19T08:43:34;102185.44;;;30.53;20.32
49072;BME280;52656;52.610;10.236;2023-05-19T08:45:59;102185.78;;;30.23;21.25
49072;BME280;52656;52.610;10.236;2023-05-19T08:48:26;102179.31;;;28.94;21.87
49072;BME280;52656;52.610;10.236;2023-05-19T08:53:33;102170.50;;;32.77;19.48
49072;BME280;52656;52.610;10.236;2023-05-19T08:56:03;102166.63;;;31.97;18.96
49072;BME280;52656;52.610;10.236;2023-05-19T08:58:33;102166.28;;;31.49;19.57
49072;BME280;52656;52.610;10.236;2023-05-19T09:00:59;102168.59;;;31.10;20.15
49072;BME280;52656;52.610;10.236;2023-05-19T09:03:25;102160.69;;;30.99;20.53
49072;BME280;52656;52.610;10.236;2023-05-19T09:05:52;102154.72;;;32.39;18.96
49072;BME280;52656;52.610;10.236;2023-05-19T09:08:17;102143.06;;;33.57;18.53
49072;BME280;52656;52.610;10.236;2023-05-19T09:10:43;102150.41;;;32.03;19.76
49072;BME280;52656;52.610;10.236;2023-05-19T09:13:08;102151.25;;;29.12;21.31
49072;BME280;52656;52.610;10.236;2023-05-19T09:15:33;102145.84;;;31.10;19.89
49072;BME280;52656;52.610;10.236;2023-05-19T09:18:10;102150.31;;;28.83;20.84
49072;BME280;52656;52.610;10.236;2023-05-19T09:20:39;102139.16;;;28.77;20.62
49072;BME280;52656;52.610;10.236;2023-05-19T09:23:05;102143.44;;;28.89;20.60
49072;BME280;52656;52.610;10.236;2023-05-19T09:25:31;102147.50;;;27.37;23.42
49072;BME280;52656;52.610;10.236;2023-05-19T09:27:56;102156.81;;;27.74;22.08
49072;BME280;52656;52.610;10.236;2023-05-19T09:30:22;102144.72;;;24.88;25.18
49072;BME280;52656;52.610;10.236;2023-05-19T09:32:47;102164.88;;;23.64;25.90
49072;BME280;52656;52.610;10.236;2023-05-19T09:35:13;102148.38;;;24.64;25.80
49072;BME280;52656;52.610;10.236;2023-05-19T09:37:41;102154.25;;;26.49;23.93
49072;BME280;52656;52.610;10.236;2023-05-19T09:40:07;102159.00;;;26.36;22.85
49072;BME280;52656;52.610;10.236;2023-05-19T09:42:33;102153.84;;;27.87;22.15
49072;BME280;52656;52.610;10.236;2023-05-19T09:45:01;102151.03;;;23.68;24.88
49072;BME280;52656;52.610;10.236;2023-05-19T09:47:31;102140.47;;;23.40;26.34
49072;BME280;52656;52.610;10.236;2023-05-19T09:49:56;102140.72;;;23.11;26.68
49072;BME280;52656;52.610;10.236;2023-05-19T09:52:22;102140.09;;;23.08;26.33
49072;BME280;52656;52.610;10.236;2023-05-19T09:54:48;102148.19;;;22.55;27.18
49072;BME280;52656;52.610;10.236;2023-05-19T09:57:15;102137.81;;;22.49;27.65
49072;BME280;52656;52.610;10.236;2023-05-19T09:59:40;102138.25;;;22.01;26.96
49072;BME280;52656;52.610;10.236;2023-05-19T10:02:08;102130.78;;;22.46;28.64
49072;BME280;52656;52.610;10.236;2023-05-19T10:04:38;102126.19;;;25.73;23.98
49072;BME280;52656;52.610;10.236;2023-05-19T10:07:03;102126.31;;;26.47;23.15
49072;BME280;52656;52.610;10.236;2023-05-19T10:09:29;102113.41;;;27.73;21.23
49072;BME280;52656;52.610;10.236;2023-05-19T10:11:55;102123.94;;;27.56;20.48
49072;BME280;52656;52.610;10.236;2023-05-19T10:14:21;102115.66;;;24.90;23.29
49072;BME280;52656;52.610;10.236;2023-05-19T10:16:49;102129.59;;;21.55;26.49
49072;BME280;52656;52.610;10.236;2023-05-19T10:19:15;102122.28;;;21.43;27.44
49072;BME280;52656;52.610;10.236;2023-05-19T10:21:40;102129.97;;;21.63;27.16
49072;BME280;52656;52.610;10.236;2023-05-19T10:24:05;102121.88;;;22.32;25.76
49072;BME280;52656;52.610;10.236;2023-05-19T10:26:31;102114.34;;;24.01;24.73
49072;BME280;52656;52.610;10.236;2023-05-19T10:28:56;102115.66;;;22.57;25.54
49072;BME280;52656;52.610;10.236;2023-05-19T10:31:22;102111.56;;;21.55;27.18
49072;BME280;52656;52.610;10.236;2023-05-19T10:39:34;102093.91;;;23.11;25.98
49072;BME280;52656;52.610;10.236;2023-05-19T10:44:39;102110.22;;;24.08;25.12
49072;BME280;52656;52.610;10.236;2023-05-19T10:47:06;102104.59;;;24.46;24.68
49072;BME280;52656;52.610;10.236;2023-05-19T10:49:35;102096.66;;;23.84;25.58
49072;BME280;52656;52.610;10.236;2023-05-19T10:52:00;102101.38;;;23.93;25.16
49072;BME280;52656;52.610;10.236;2023-05-19T10:54:41;102113.97;;;23.45;25.40
49072;BME280;52656;52.610;10.236;2023-05-19T10:57:13;102105.22;;;22.65;26.13
49072;BME280;52656;52.610;10.236;2023-05-19T10:59:38;102097.78;;;22.01;26.27
49072;BME280;52656;52.610;10.236;2023-05-19T11:02:07;102091.38;;;21.48;27.53
49072;BME280;52656;52.610;10.236;2023-05-19T11:04:45;102092.09;;;21.79;27.10
49072;BME280;52656;52.610;10.236;2023-05-19T11:07:17;102093.63;;;22.37;27.14
49072;BME280;52656;52.610;10.236;2023-05-19T11:09:50;102082.28;;;22.45;27.04
49072;BME280;52656;52.610;10.236;2023-05-19T11:12:19;102082.19;;;21.65;26.99
49072;BME280;52656;52.610;10.236;2023-05-19T11:14:44;102091.06;;;21.39;27.63
49072;BME280;52656;52.610;10.236;2023-05-19T11:17:16;102079.91;;;20.73;28.68
49072;BME280;52656;52.610;10.236;2023-05-19T11:19:55;102083.56;;;21.29;27.94
49072;BME280;52656;52.610;10.236;2023-05-19T11:22:22;102088.97;;;21.44;27.13
49072;BME280;52656;52.610;10.236;2023-05-19T11:24:48;102090.28;;;21.65;27.16
49072;BME280;52656;52.610;10.236;2023-05-19T11:29:50;102085.09;;;21.48;27.50
49072;BME280;52656;52.610;10.236;2023-05-19T11:32:16;102081.41;;;21.22;27.39
49072;BME280;52656;52.610;10.236;2023-05-19T11:34:42;102076.63;;;21.68;27.12
49072;BME280;52656;52.610;10.236;2023-05-19T11:37:08;102075.38;;;20.88;28.55
49072;BME280;52656;52.610;10.236;2023-05-19T11:39:33;102078.25;;;21.57;27.71
49072;BME280;52656;52.610;10.236;2023-05-19T11:41:59;102082.00;;;22.22;27.29
49072;BME280;52656;52.610;10.236;2023-05-19T11:44:24;102076.94;;;22.30;26.86
49072;BME280;52656;52.610;10.236;2023-05-19T11:46:49;102069.16;;;22.26;26.64
49072;BME280;52656;52.610;10.236;2023-05-19T11:49:15;102075.56;;;22.38;27.04
49072;BME280;52656;52.610;10.236;2023-05-19T11:51:46;102068.94;;;22.29;27.52
49072;BME280;52656;52.610;10.236;2023-05-19T11:54:12;102068.66;;;22.07;26.66
49072;BME280;52656;52.610;10.236;2023-05-19T11:56:41;102056.81;;;21.82;27.10
49072;BME280;52656;52.610;10.236;2023-05-19T11:59:07;102065.19;;;22.32;27.20
49072;BME280;52656;52.610;10.236;2023-05-19T12:01:32;102061.34;;;21.82;27.15
49072;BME280;52656;52.610;10.236;2023-05-19T12:03:58;102069.41;;;21.54;28.16
49072;BME280;52656;52.610;10.236;2023-05-19T12:06:24;102081.97;;;21.13;27.55
49072;BME280;52656;52.610;10.236;2023-05-19T12:08:50;102068.66;;;21.24;27.70
49072;BME280;52656;52.610;10.236;2023-05-19T12:11:15;102070.84;;;20.89;27.82
49072;BME280;52656;52.610;10.236;2023-05-19T12:13:40;102065.13;;;21.09;28.08
49072;BME280;52656;52.610;10.236;2023-05-19T12:16:07;102059.66;;;21.66;27.73
49072;BME280;52656;52.610;10.236;2023-05-19T12:18:35;102054.19;;;21.68;27.12
49072;BME280;52656;52.610;10.236;2023-05-19T12:21:00;102055.78;;;21.15;27.62
49072;BME280;52656;52.610;10.236;2023-05-19T12:23:26;102049.28;;;21.87;28.24
49072;BME280;52656;52.610;10.236;2023-05-19T12:25:54;102063.44;;;21.49;28.37
49072;BME280;52656;52.610;10.236;2023-05-19T12:28:20;102050.66;;;21.24;27.89
49072;BME280;52656;52.610;10.236;2023-05-19T12:30:46;102040.66;;;21.41;27.67
49072;BME280;52656;52.610;10.236;2023-05-19T12:33:13;102043.88;;;21.04;27.78
49072;BME280;52656;52.610;10.236;2023-05-19T12:35:38;102038.88;;;20.98;27.53
49072;BME280;52656;52.610;10.236;2023-05-19T12:38:05;102036.84;;;21.02;27.58
49072;BME280;52656;52.610;10.236;2023-05-19T12:40:31;102035.41;;;20.96;28.42
49072;BME280;52656;52.610;10.236;2023-05-19T12:42:57;102037.22;;;20.96;28.58
49072;BME280;52656;52.610;10.236;2023-05-19T12:45:22;102036.81;;;20.73;27.66
49072;BME280;52656;52.610;10.236;2023-05-19T12:47:50;102030.84;;;20.54;27.98
49072;BME280;52656;52.610;10.236;2023-05-19T12:50:15;102019.16;;;21.12;27.49
49072;BME280;52656;52.610;10.236;2023-05-19T12:52:42;102025.88;;;20.91;27.85
49072;BME280;52656;52.610;10.236;2023-05-19T12:55:08;102032.81;;;20.36;27.87
49072;BME280;52656;52.610;10.236;2023-05-19T12:57:35;102028.59;;;20.32;27.68
49072;BME280;52656;52.610;10.236;2023-05-19T13:00:04;102021.41;;;20.47;28.04
49072;BME280;52656;52.610;10.236;2023-05-19T13:02:32;102026.50;;;20.66;27.85
49072;BME280;52656;52.610;10.236;2023-05-19T13:04:58;102027.88;;;20.87;28.44
49072;BME280;52656;52.610;10.236;2023-05-19T13:07:23;102023.47;;;20.72;28.68
49072;BME280;52656;52.610;10.236;2023-05-19T13:09:48;102033.28;;;20.28;28.34
49072;BME280;52656;52.610;10.236;2023-05-19T13:12:13;102031.59;;;20.42;28.64
49072;BME280;52656;52.610;10.236;2023-05-19T13:14:39;102022.56;;;20.57;30.42